Time;durP1;ratioP1;P1;durP2;ratioP2;P2;SDS_P1;SDS_P2;PMS_P1;PMS_P2;Temp;Humidity;BMP_temperature;BMP_pressure;BME280_temperature;BME280_humidity;BME280_pressure;Samples;Min_cycle;Max_cycle;Signal;HPM_P1;HPM_P2
2021/10/01 00:00:58;;;;;;;19.17;6.30;;;;;;;17.58;63.29;100971.56;5113222;28;20582;-64
2021/10/01 00:03:24;;;;;;;12.73;4.37;;;;;;;17.71;63.45;100991.31;5114798;27;20105;-63
2021/10/01 00:05:51;;;;;;;11.20;4.60;;;;;;;17.72;63.44;100992.97;5097290;28;20075;-64
2021/10/01 00:08:18;;;;;;;12.80;4.15;;;;;;;17.76;63.28;100991.19;5111525;28;20047;-65
2021/10/01 00:10:45;;;;;;;16.70;4.17;;;;;;;17.77;63.12;100992.84;5096423;28;20048;-64
2021/10/01 00:13:12;;;;;;;12.40;3.90;;;;;;;17.79;63.21;101003.84;5108158;28;20074;-66
2021/10/01 00:15:39;;;;;;;15.97;3.90;;;;;;;17.78;62.90;100996.53;5102390;28;20130;-65
2021/10/01 00:18:06;;;;;;;17.30;4.35;;;;;;;17.72;62.57;100987.31;5100912;28;20591;-67
2021/10/01 00:20:33;;;;;;;27.42;6.50;;;;;;;17.67;62.37;100984.59;5095400;28;20075;-69
2021/10/01 00:23:00;;;;;;;8.40;3.33;;;;;;;17.73;62.71;100988.97;5101498;28;20142;-69
2021/10/01 00:25:26;;;;;;;14.20;4.43;;;;;;;17.71;62.54;100982.00;5094583;28;20130;-69
2021/10/01 00:27:53;;;;;;;12.65;4.20;;;;;;;17.68;62.69;100980.63;5094848;28;20126;-70
2021/10/01 00:30:20;;;;;;;12.35;4.07;;;;;;;17.56;62.72;100954.94;5096833;28;20571;-68
2021/10/01 00:32:48;;;;;;;13.70;3.85;;;;;;;17.55;62.87;100969.38;5104117;28;20131;-69
2021/10/01 00:35:15;;;;;;;10.38;3.47;;;;;;;17.50;63.26;100961.84;5114990;27;20130;-63
2021/10/01 00:37:42;;;;;;;7.40;3.07;;;;;;;17.52;62.86;100973.66;5110716;28;20578;-66
2021/10/01 00:40:09;;;;;;;11.27;3.43;;;;;;;17.39;63.10;100940.66;5097267;28;20098;-67
2021/10/01 00:42:37;;;;;;;9.88;3.63;;;;;;;17.50;63.34;100961.84;5113792;28;20131;-62
2021/10/01 00:45:05;;;;;;;9.57;3.50;;;;;;;17.47;62.93;100956.81;5100088;28;20119;-65
2021/10/01 00:47:32;;;;;;;12.97;3.07;;;;;;;17.39;63.36;100964.06;5101040;28;20135;-65
2021/10/01 00:49:59;;;;;;;6.87;2.87;;;;;;;17.19;63.95;100954.03;5105567;28;20135;-65
2021/10/01 00:52:26;;;;;;;14.67;2.93;;;;;;;17.13;64.49;100963.81;5112551;28;20213;-60
2021/10/01 00:54:53;;;;;;;8.13;2.60;;;;;;;17.04;64.65;100960.03;5111086;28;20485;-62
2021/10/01 00:57:19;;;;;;;9.67;3.90;;;;;;;16.61;64.82;100915.16;5096011;28;20126;-61
2021/10/01 00:59:46;;;;;;;9.97;3.17;;;;;;;16.98;64.77;100972.56;5110139;28;20134;-64
2021/10/01 01:02:13;;;;;;;17.43;2.83;;;;;;;17.02;64.36;100982.06;5114130;27;20044;-60
2021/10/01 01:04:44;;;;;;;20.27;3.33;;;;;;;16.97;64.33;100951.16;5100568;28;20526;-63
2021/10/01 01:07:35;;;;;;;11.93;4.30;;;;;;;17.15;63.97;100975.59;5092240;28;20068;-61
2021/10/01 01:10:15;;;;;;;14.00;3.83;;;;;;;17.20;63.69;100972.69;5107432;28;20138;-60
2021/10/01 01:12:50;;;;;;;16.63;3.25;;;;;;;17.19;63.49;100962.50;5099066;28;20051;-59
2021/10/01 01:15:29;;;;;;;14.70;4.27;;;;;;;17.28;63.75;100968.28;5096227;27;20052;-65
2021/10/01 01:18:07;;;;;;;15.47;5.07;;;;;;;17.34;63.35;100969.84;5094656;27;20135;-66
2021/10/01 01:20:39;;;;;;;11.77;3.47;;;;;;;17.35;63.34;100965.03;5110265;28;20151;-64
2021/10/01 01:23:27;;;;;;;11.40;3.90;;;;;;;17.41;63.89;100977.88;5111830;28;20162;-65
2021/10/01 01:26:03;;;;;;;8.63;3.67;;;;;;;17.39;63.25;100971.69;5099778;27;20135;-61
2021/10/01 01:28:58;;;;;;;11.75;3.55;;;;;;;17.34;63.09;100975.47;5101680;28;20131;-66
2021/10/01 01:31:45;;;;;;;10.00;3.70;;;;;;;17.21;63.01;100962.22;5102209;28;20118;-76
2021/10/01 01:34:19;;;;;;;12.27;3.67;;;;;;;17.26;63.31;100979.88;5095134;28;20044;-71
2021/10/01 01:36:51;;;;;;;13.33;3.67;;;;;;;17.27;63.07;100975.06;5107141;28;20483;-62
2021/10/01 01:39:18;;;;;;;16.45;3.05;;;;;;;17.27;62.89;100969.44;5110456;28;20086;-62
2021/10/01 01:41:46;;;;;;;8.60;2.90;;;;;;;17.23;63.14;100971.19;5105736;28;20127;-64
2021/10/01 01:44:15;;;;;;;12.27;4.17;;;;;;;17.19;63.26;100979.44;5105516;28;20134;-63
2021/10/01 01:46:42;;;;;;;12.37;3.80;;;;;;;17.08;63.22;100966.72;5106856;28;20151;-62
2021/10/01 01:49:11;;;;;;;10.30;3.60;;;;;;;17.01;63.33;100958.66;5103212;28;20150;-62
2021/10/01 01:51:39;;;;;;;15.18;4.25;;;;;;;17.02;63.42;100968.78;5098200;28;20131;-67
2021/10/01 01:54:06;;;;;;;12.87;4.30;;;;;;;16.76;63.48;100926.19;5107466;28;20067;-60
2021/10/01 01:56:34;;;;;;;13.13;4.90;;;;;;;17.01;63.59;100960.66;5102849;28;20555;-60
2021/10/01 01:59:03;;;;;;;22.00;4.10;;;;;;;17.02;63.78;100957.50;5107228;28;20122;-60
2021/10/01 02:01:31;;;;;;;17.65;4.82;;;;;;;17.03;63.71;100958.38;5084765;28;20075;-60
2021/10/01 02:04:00;;;;;;;17.50;5.43;;;;;;;17.05;63.90;100962.53;5105014;28;20043;-60
2021/10/01 02:06:30;;;;;;;17.30;4.57;;;;;;;17.00;64.00;100933.59;5098113;28;20070;-61
2021/10/01 02:08:59;;;;;;;9.43;4.53;;;;;;;16.99;64.01;100929.09;5111287;28;20462;-61
2021/10/01 02:11:28;;;;;;;17.00;4.70;;;;;;;17.11;64.06;100937.88;5111126;28;20527;-63
2021/10/01 02:13:57;;;;;;;17.35;4.97;;;;;;;17.06;64.40;100921.06;5106770;28;20051;-63
2021/10/01 02:16:25;;;;;;;16.37;4.83;;;;;;;17.17;64.53;100941.44;5097469;28;20131;-64
2021/10/01 02:18:55;;;;;;;18.53;4.73;;;;;;;17.20;64.21;100941.63;5099455;28;20122;-63
2021/10/01 02:21:23;;;;;;;15.55;4.85;;;;;;;17.26;64.05;100942.34;5098715;28;20087;-63
2021/10/01 02:23:50;;;;;;;10.80;4.40;;;;;;;17.29;64.17;100950.16;5107032;28;20070;-63
2021/10/01 02:26:34;;;;;;;11.88;4.38;;;;;;;17.29;63.81;100928.41;5098825;28;20143;-63
2021/10/01 02:29:10;;;;;;;11.03;4.33;;;;;;;17.33;64.33;100928.63;5104945;28;20070;-61
2021/10/01 02:32:06;;;;;;;15.93;4.53;;;;;;;17.36;63.65;100938.44;5100154;27;20040;-61
2021/10/01 02:34:40;;;;;;;9.77;3.80;;;;;;;17.31;64.09;100930.13;5093523;28;20142;-63
2021/10/01 02:37:08;;;;;;;10.27;4.10;;;;;;;17.32;63.97;100926.97;5092902;28;20122;-63
2021/10/01 02:39:35;;;;;;;16.57;4.97;;;;;;;17.43;64.16;100933.19;5112176;28;20130;-63
2021/10/01 02:42:03;;;;;;;19.67;4.43;;;;;;;17.31;64.24;100914.00;5093000;28;20186;-63
2021/10/01 02:44:31;;;;;;;18.10;4.20;;;;;;;17.39;63.80;100921.72;5110301;28;20131;-62
2021/10/01 02:46:57;;;;;;;7.83;3.67;;;;;;;17.29;64.31;100905.84;5097706;28;20472;-63
2021/10/01 02:49:24;;;;;;;15.52;3.63;;;;;;;17.36;64.04;100911.06;5106428;28;20071;-63
2021/10/01 02:51:57;;;;;;;9.75;3.83;;;;;;;17.24;64.51;100905.97;5090298;28;20071;-63
2021/10/01 02:54:36;;;;;;;19.45;4.68;;;;;;;17.09;64.36;100895.00;5108514;28;20126;-68
2021/10/01 02:57:11;;;;;;;16.90;4.67;;;;;;;16.99;65.02;100892.41;5102756;28;20563;-67
2021/10/01 02:59:41;;;;;;;14.00;3.77;;;;;;;17.02;64.97;100894.59;5110309;28;20063;-67
2021/10/01 03:02:10;;;;;;;12.47;4.07;;;;;;;16.95;64.84;100888.56;5090043;28;20064;-64
2021/10/01 03:04:38;;;;;;;12.40;4.40;;;;;;;16.99;64.74;100898.91;5094965;28;20090;-63
2021/10/01 03:07:07;;;;;;;8.85;3.90;;;;;;;17.16;64.38;100922.81;5109578;28;20047;-64
2021/10/01 03:09:36;;;;;;;15.27;4.53;;;;;;;17.22;64.51;100932.84;5096180;28;20503;-66
2021/10/01 03:12:05;;;;;;;11.17;3.80;;;;;;;17.11;64.12;100906.81;5112163;28;20143;-65
2021/10/01 03:14:34;;;;;;;10.45;4.38;;;;;;;17.28;64.45;100914.63;5107035;28;20143;-65
2021/10/01 03:17:02;;;;;;;9.07;3.73;;;;;;;17.31;64.25;100914.00;5110168;28;20067;-65
2021/10/01 03:19:29;;;;;;;10.77;4.90;;;;;;;17.24;64.00;100911.63;5097833;28;20465;-64
2021/10/01 03:21:57;;;;;;;7.73;3.80;;;;;;;17.38;64.10;100930.50;5113900;28;20078;-64
2021/10/01 03:24:24;;;;;;;15.43;4.30;;;;;;;17.41;64.14;100933.53;5101680;28;20079;-63
2021/10/01 03:26:51;;;;;;;7.90;4.00;;;;;;;17.36;63.96;100910.22;5098781;28;20472;-63
2021/10/01 03:29:19;;;;;;;14.35;5.15;;;;;;;17.34;64.17;100913.38;5116148;28;20472;-65
2021/10/01 03:31:48;;;;;;;16.60;5.20;;;;;;;17.33;64.42;100906.03;5106890;28;20082;-65
2021/10/01 03:34:16;;;;;;;11.57;5.77;;;;;;;17.43;64.13;100911.44;5086320;27;20087;-65
2021/10/01 03:36:44;;;;;;;17.52;6.18;;;;;;;17.40;64.31;100899.97;5104033;27;20306;-64
2021/10/01 03:39:11;;;;;;;17.67;5.97;;;;;;;17.28;64.07;100903.34;5112797;28;20154;-63
2021/10/01 03:41:38;;;;;;;16.63;4.53;;;;;;;17.34;64.56;100918.19;5106809;28;20126;-63
2021/10/01 03:44:05;;;;;;;18.80;4.63;;;;;;;17.35;64.66;100919.84;5107240;28;20086;-63
2021/10/01 03:46:32;;;;;;;18.00;4.50;;;;;;;17.35;64.26;100922.69;5103218;28;20130;-65
2021/10/01 03:48:59;;;;;;;18.87;6.23;;;;;;;17.32;64.58;100903.53;5101430;28;20123;-64
2021/10/01 03:51:26;;;;;;;11.18;4.68;;;;;;;17.42;64.47;100911.78;5097600;28;20146;-64
2021/10/01 03:53:54;;;;;;;17.00;5.22;;;;;;;17.36;64.22;100894.13;5109371;28;20134;-65
2021/10/01 03:56:21;;;;;;;12.70;4.82;;;;;;;17.47;64.38;100903.19;5104955;28;20151;-63
2021/10/01 03:58:49;;;;;;;18.30;4.90;;;;;;;17.44;64.38;100892.53;5097939;28;20143;-65
2021/10/01 04:01:16;;;;;;;12.57;5.80;;;;;;;17.51;64.29;100902.25;5100002;28;20554;-64
2021/10/01 04:03:44;;;;;;;17.52;5.55;;;;;;;17.54;64.25;100895.13;5096758;28;20522;-61
2021/10/01 04:06:11;;;;;;;13.52;4.90;;;;;;;17.53;64.16;100897.09;5088132;28;20070;-61
2021/10/01 04:08:38;;;;;;;12.02;4.78;;;;;;;17.51;64.22;100896.59;5100519;28;20048;-62
2021/10/01 04:11:05;;;;;;;11.50;4.10;;;;;;;17.53;64.26;100893.44;5107972;28;20135;-61
2021/10/01 04:13:32;;;;;;;8.63;4.28;;;;;;;17.49;64.47;100884.78;5107573;27;20072;-61
2021/10/01 04:15:59;;;;;;;9.20;4.03;;;;;;;17.35;64.57;100866.22;5106330;27;20035;-61
2021/10/01 04:18:26;;;;;;;11.40;5.10;;;;;;;17.21;64.89;100892.50;5100004;27;20439;-61
2021/10/01 04:20:53;;;;;;;9.13;5.10;;;;;;;17.02;65.35;100886.16;5101948;28;20143;-59
2021/10/01 04:23:20;;;;;;;8.18;4.03;;;;;;;16.75;65.70;100865.31;5107632;28;20082;-60
2021/10/01 04:25:47;;;;;;;16.10;3.42;;;;;;;16.70;66.08;100871.00;5105479;28;20134;-61
2021/10/01 04:28:14;;;;;;;14.93;4.78;;;;;;;16.55;66.76;100885.44;5105308;28;20090;-59
2021/10/01 04:30:48;;;;;;;8.70;3.95;;;;;;;16.43;67.27;100887.91;5108515;28;20512;-59
2021/10/01 04:33:23;;;;;;;15.63;4.32;;;;;;;16.29;67.78;100885.09;5096402;28;20056;-61
2021/10/01 04:35:52;;;;;;;11.97;4.03;;;;;;;16.13;67.89;100869.59;5101666;28;20036;-61
2021/10/01 04:38:21;;;;;;;16.30;4.40;;;;;;;16.16;67.93;100875.44;5094595;28;20040;-61
2021/10/01 04:40:49;;;;;;;12.35;4.70;;;;;;;16.01;68.14;100867.28;5104825;27;20074;-62
2021/10/01 04:43:17;;;;;;;14.80;5.00;;;;;;;16.15;68.07;100887.88;5107201;28;20131;-64
2021/10/01 04:45:44;;;;;;;10.87;4.23;;;;;;;16.16;68.19;100883.91;5107684;28;20136;-60
2021/10/01 04:48:11;;;;;;;13.83;5.60;;;;;;;16.06;68.05;100882.09;5101527;28;20480;-60
2021/10/01 04:50:38;;;;;;;12.70;4.83;;;;;;;16.07;68.34;100885.78;5103045;28;20127;-59
2021/10/01 04:53:05;;;;;;;14.17;5.77;;;;;;;15.91;68.64;100865.50;5096637;28;20095;-59
2021/10/01 04:55:32;;;;;;;16.10;4.33;;;;;;;15.86;68.97;100862.75;5096910;28;20081;-60
2021/10/01 04:58:01;;;;;;;12.60;4.63;;;;;;;15.96;68.76;100885.09;5102290;28;20123;-62
2021/10/01 05:00:28;;;;;;;15.57;5.20;;;;;;;16.06;68.46;100890.56;5094962;28;20127;-64
2021/10/01 05:02:55;;;;;;;12.37;5.33;;;;;;;15.75;68.49;100839.56;5101836;28;20062;-61
2021/10/01 05:05:22;;;;;;;9.67;4.83;;;;;;;16.08;68.25;100888.28;5100547;28;20048;-60
2021/10/01 05:07:49;;;;;;;13.30;5.40;;;;;;;16.12;68.05;100885.69;5093435;28;20400;-60
2021/10/01 05:10:16;;;;;;;12.27;5.70;;;;;;;16.11;68.00;100869.94;5107502;28;20503;-60
2021/10/01 05:12:43;;;;;;;16.17;5.27;;;;;;;16.07;68.13;100877.34;5104981;28;20150;-67
2021/10/01 05:15:10;;;;;;;12.20;5.23;;;;;;;16.23;67.96;100912.50;5085865;28;20087;-63
2021/10/01 05:17:39;;;;;;;15.93;5.17;;;;;;;16.24;67.69;100897.31;5106813;28;20071;-62
2021/10/01 05:20:09;;;;;;;14.27;5.17;;;;;;;16.37;67.34;100898.44;5097203;28;20079;-59
2021/10/01 05:22:37;;;;;;;15.07;6.63;;;;;;;16.32;67.09;100881.66;5096226;28;20575;-75
2021/10/01 05:25:08;;;;;;;10.53;5.33;;;;;;;16.41;67.14;100896.69;5109756;28;20044;-75
2021/10/01 05:27:35;;;;;;;12.77;5.10;;;;;;;16.54;66.46;100897.84;5094448;28;20075;-64
2021/10/01 05:30:03;;;;;;;14.53;5.63;;;;;;;16.50;66.60;100888.34;5103829;28;20142;-64
2021/10/01 05:32:30;;;;;;;16.53;6.13;;;;;;;16.71;66.31;100917.78;5107961;28;20040;-63
2021/10/01 05:34:57;;;;;;;14.67;5.90;;;;;;;16.68;66.23;100909.94;5099030;27;20071;-59
2021/10/01 05:37:24;;;;;;;9.73;5.17;;;;;;;16.89;66.05;100929.31;5091716;28;20126;-54
2021/10/01 05:39:51;;;;;;;15.97;5.63;;;;;;;16.95;66.22;100928.06;5081368;28;20128;-58
2021/10/01 05:42:18;;;;;;;13.98;5.38;;;;;;;16.90;66.06;100920.53;5105562;27;20104;-64
2021/10/01 05:44:44;;;;;;;11.90;5.47;;;;;;;16.99;65.69;100929.09;5098908;28;20048;-61
2021/10/01 05:47:11;;;;;;;9.00;4.90;;;;;;;17.02;65.68;100932.13;5102072;28;20551;-59
2021/10/01 05:49:40;;;;;;;18.67;6.18;;;;;;;17.05;65.84;100927.84;5100358;28;20126;-60
2021/10/01 05:52:37;;;;;;;17.15;6.85;;;;;;;17.02;66.08;100923.66;5098518;27;20079;-61
2021/10/01 05:55:05;;;;;;;14.48;5.68;;;;;;;16.97;65.93;100908.84;5097388;28;20138;-60
2021/10/01 05:57:32;;;;;;;18.75;6.25;;;;;;;17.05;65.77;100916.56;5092996;27;20138;-62
2021/10/01 05:59:58;;;;;;;14.70;5.78;;;;;;;17.07;66.08;100924.72;5092544;28;20150;-62
2021/10/01 06:02:26;;;;;;;18.40;6.10;;;;;;;17.07;65.87;100917.09;5100921;27;20130;-63
2021/10/01 06:04:55;;;;;;;11.60;5.22;;;;;;;16.91;65.68;100901.63;5102926;28;20093;-63
2021/10/01 06:07:22;;;;;;;17.55;6.30;;;;;;;16.85;66.26;100916.97;5089309;28;20502;-63
2021/10/01 06:09:50;;;;;;;15.63;5.60;;;;;;;16.78;66.38;100921.06;5108303;28;20086;-63
2021/10/01 06:12:17;;;;;;;11.25;5.30;;;;;;;16.55;66.47;100893.88;5091368;28;20054;-63
2021/10/01 06:14:45;;;;;;;13.90;4.85;;;;;;;16.58;66.73;100922.28;5085713;28;20119;-64
2021/10/01 06:17:15;;;;;;;11.40;5.47;;;;;;;16.57;66.84;100928.22;5099951;28;20072;-63
2021/10/01 06:19:43;;;;;;;17.02;5.85;;;;;;;16.60;66.55;100921.97;5102644;28;20100;-63
2021/10/01 06:22:12;;;;;;;13.77;5.60;;;;;;;16.61;66.60;100929.28;5100641;28;20045;-62
2021/10/01 06:24:39;;;;;;;16.45;5.50;;;;;;;16.58;66.66;100918.59;5095023;28;20135;-62
2021/10/01 06:27:07;;;;;;;19.83;6.67;;;;;;;16.79;66.64;100950.94;5104965;28;20126;-62
2021/10/01 06:29:34;;;;;;;12.70;5.97;;;;;;;16.89;66.27;100944.28;5097249;28;20086;-62
2021/10/01 06:32:01;;;;;;;13.50;6.70;;;;;;;16.91;66.15;100927.03;5097794;28;20118;-62
2021/10/01 06:34:28;;;;;;;13.68;5.68;;;;;;;16.74;66.44;100934.13;5100055;28;20039;-62
2021/10/01 06:36:55;;;;;;;15.05;6.82;;;;;;;16.68;66.74;100929.69;5102715;28;20143;-62
2021/10/01 06:39:22;;;;;;;15.52;6.60;;;;;;;16.52;66.67;100919.88;5098724;28;20543;-62
2021/10/01 06:41:49;;;;;;;21.77;6.70;;;;;;;16.36;67.15;100905.25;5097611;28;20136;-61
2021/10/01 06:44:23;;;;;;;17.70;7.03;;;;;;;16.35;67.47;100909.22;5075253;27;20175;-62
2021/10/01 06:46:53;;;;;;;15.10;7.40;;;;;;;16.13;68.11;100895.78;5095867;28;20040;-62
2021/10/01 06:52:12;;;;;;;12.68;6.95;;;;;;;16.10;68.27;100935.84;5094160;28;20056;-62
2021/10/01 07:36:32;;;;;;;19.83;9.10;;;;;;;16.56;67.70;100974.50;5099097;28;20130;-62
2021/10/01 08:20:23;;;;;;;21.52;9.98;;;;;;;18.84;63.95;101008.31;5114055;28;20118;-63
2021/10/01 08:22:50;;;;;;;18.55;10.23;;;;;;;18.92;63.51;101001.84;5102671;28;20076;-62
2021/10/01 08:25:17;;;;;;;20.80;10.48;;;;;;;19.08;63.52;101008.72;5094908;28;20174;-63
2021/10/01 08:27:43;;;;;;;29.95;11.80;;;;;;;19.28;63.09;101021.47;5094650;28;20135;-63
2021/10/01 08:30:11;;;;;;;25.33;13.20;;;;;;;19.45;62.96;101026.31;5106598;28;20127;-62
2021/10/01 08:32:40;;;;;;;41.83;20.38;;;;;;;19.61;62.79;101023.88;5101267;28;20127;-62
2021/10/01 08:35:10;;;;;;;40.78;21.02;;;;;;;19.79;62.36;101019.91;5113839;28;20128;-62
2021/10/01 08:37:37;;;;;;;37.97;21.08;;;;;;;19.95;62.27;101017.44;5104690;28;20458;-64
2021/10/01 08:40:06;;;;;;;29.33;16.40;;;;;;;20.10;61.86;101016.97;5098867;28;20135;-64
2021/10/01 08:42:33;;;;;;;21.85;13.32;;;;;;;20.32;61.65;101027.28;5097856;28;20118;-63
2021/10/01 08:45:01;;;;;;;25.13;12.90;;;;;;;20.57;61.07;101011.41;5095492;28;20135;-61
2021/10/01 08:47:28;;;;;;;20.00;10.00;;;;;;;20.80;60.37;101005.53;5106248;28;20499;-62
2021/10/01 08:49:59;;;;;;;16.25;8.10;;;;;;;20.86;59.66;100995.66;5101498;28;20131;-62
2021/10/01 08:52:27;;;;;;;15.07;8.75;;;;;;;21.05;59.03;101015.94;5095065;28;20460;-61
2021/10/01 08:54:54;;;;;;;18.88;7.65;;;;;;;21.15;58.54;101011.88;5102542;28;20048;-62
2021/10/01 08:57:21;;;;;;;16.63;7.38;;;;;;;21.12;58.32;100980.50;5113299;28;20557;-62
2021/10/01 08:59:48;;;;;;;17.05;8.88;;;;;;;21.47;58.05;101015.25;5113981;28;20119;-62
2021/10/01 09:02:14;;;;;;;20.55;9.88;;;;;;;21.70;57.42;101030.81;5108908;27;20076;-61
2021/10/01 09:04:42;;;;;;;20.45;10.23;;;;;;;21.90;57.15;101012.13;5105874;28;20039;-62
2021/10/01 09:07:09;;;;;;;23.20;10.23;;;;;;;22.41;56.86;101015.72;5106154;28;20123;-62
2021/10/01 09:09:39;;;;;;;21.40;8.82;;;;;;;23.05;56.01;101013.56;5113436;28;20432;-61
2021/10/01 09:12:06;;;;;;;;;;;;;;;23.68;57.04;101011.19;5107438;28;20035;-62
2021/10/01 09:14:56;;;;;;;14.75;6.47;;;;;;;24.63;54.26;101011.63;5104795;28;20011;-62
2021/10/01 09:17:27;;;;;;;14.68;6.95;;;;;;;25.29;51.74;101022.38;5111183;28;20079;-62
2021/10/01 09:19:55;;;;;;;16.95;6.22;;;;;;;26.05;50.05;101024.22;5101584;28;20127;-62
2021/10/01 09:22:34;;;;;;;12.55;6.18;;;;;;;26.70;48.99;101033.81;5094635;28;20047;-62
2021/10/01 09:25:20;;;;;;;12.98;5.75;;;;;;;27.39;48.08;101013.78;5097417;28;20124;-62
2021/10/01 09:27:59;;;;;;;12.23;6.40;;;;;;;28.24;46.06;101015.47;5112437;28;20047;-62
2021/10/01 09:30:27;;;;;;;15.60;7.00;;;;;;;28.75;44.72;101012.00;5108007;28;20074;-62
2021/10/01 09:33:10;;;;;;;11.70;5.82;;;;;;;29.19;44.14;101017.00;5108829;28;20312;-61
2021/10/01 09:35:41;;;;;;;8.38;5.07;;;;;;;29.41;42.85;100992.94;5101158;28;20043;-61
2021/10/01 09:38:11;;;;;;;13.40;5.53;;;;;;;30.05;41.40;101032.03;5101630;28;20072;-61
2021/10/01 09:40:39;;;;;;;12.75;5.32;;;;;;;30.39;40.06;101032.66;5092720;28;20089;-62
2021/10/01 09:43:09;;;;;;;14.43;10.07;;;;;;;30.68;39.74;101033.59;5093020;28;20075;-61
2021/10/01 09:45:36;;;;;;;19.13;10.70;;;;;;;31.03;38.84;101046.47;5104565;28;20335;-61
2021/10/01 09:48:05;;;;;;;15.15;7.45;;;;;;;31.28;37.68;101050.22;5099862;28;20115;-61
2021/10/01 09:50:35;;;;;;;12.82;6.20;;;;;;;31.50;37.18;101044.50;5106847;28;20051;-62
2021/10/01 09:53:05;;;;;;;10.90;5.57;;;;;;;31.58;36.71;101044.06;5092515;28;20050;-61
2021/10/01 09:55:42;;;;;;;16.35;5.70;;;;;;;31.58;36.07;101008.59;5095295;28;20094;-61
2021/10/01 09:58:16;;;;;;;11.00;6.03;;;;;;;31.80;35.20;101006.50;5092689;28;20136;-61
2021/10/01 10:00:53;;;;;;;10.23;6.03;;;;;;;31.88;35.65;101019.72;5080099;28;20440;-62
2021/10/01 10:03:23;;;;;;;15.50;6.55;;;;;;;32.06;34.61;101023.38;5096145;28;20161;-63
2021/10/01 10:06:02;;;;;;;11.65;6.60;;;;;;;32.26;34.79;101012.16;5105265;27;20126;-62
2021/10/01 10:08:38;;;;;;;13.65;7.07;;;;;;;32.62;34.51;101017.81;5121978;27;20086;-62
2021/10/01 10:11:10;;;;;;;14.77;8.05;;;;;;;32.86;33.35;101012.31;5103300;27;20112;-62
2021/10/01 10:13:46;;;;;;;12.00;7.25;;;;;;;33.15;32.95;101010.88;5092117;28;20044;-62
2021/10/01 10:16:17;;;;;;;15.60;6.95;;;;;;;33.32;32.16;101019.84;5106595;28;20079;-61
2021/10/01 10:18:47;;;;;;;11.43;5.97;;;;;;;33.44;31.64;101022.25;5104232;28;20044;-61
2021/10/01 10:21:14;;;;;;;14.45;6.63;;;;;;;33.61;31.29;101032.88;5112432;28;20091;-61
2021/10/01 10:23:41;;;;;;;13.10;6.72;;;;;;;33.70;31.10;101018.69;5103235;28;20079;-61
2021/10/01 10:26:09;;;;;;;13.35;6.75;;;;;;;33.98;30.76;101037.03;5109889;28;20061;-61
2021/10/01 10:28:40;;;;;;;13.48;7.18;;;;;;;34.15;30.73;101026.53;5109047;28;20127;-61
2021/10/01 10:31:09;;;;;;;11.70;6.75;;;;;;;34.29;29.99;101031.31;5106752;28;20071;-60
2021/10/01 10:33:43;;;;;;;21.30;11.73;;;;;;;34.39;30.31;101036.16;5091679;28;20089;-61
2021/10/01 10:36:44;;;;;;;14.25;8.02;;;;;;;34.39;30.72;101042.81;5106236;27;20140;-61
2021/10/01 10:39:11;;;;;;;21.98;12.13;;;;;;;34.56;29.72;101051.72;5096603;28;20044;-61
2021/10/01 10:41:39;;;;;;;16.60;10.15;;;;;;;34.57;29.41;101042.59;5105547;28;20116;-62
2021/10/01 10:44:06;;;;;;;14.30;8.23;;;;;;;34.53;29.43;101036.03;5129678;27;20133;-61
2021/10/01 10:46:36;;;;;;;13.18;6.47;;;;;;;34.55;29.29;101030.59;5102806;28;20043;-61
2021/10/01 10:51:57;;;;;;;6.03;4.63;;;;;;;34.45;29.65;101031.53;5099211;28;20143;-61
2021/10/01 10:54:26;;;;;;;9.30;5.88;;;;;;;34.30;29.38;101033.81;5092148;28;20048;-61
2021/10/01 10:57:11;;;;;;;;;;;;;;;33.61;31.54;101032.88;5092456;28;20126;-61
2021/10/01 10:59:38;;;;;;;12.18;6.18;;;;;;;33.86;30.16;101041.31;5094397;28;20436;-61
2021/10/01 11:02:33;;;;;;;8.32;4.35;;;;;;;33.92;30.08;101041.66;5092217;28;20428;-61
2021/10/01 11:05:19;;;;;;;7.78;4.43;;;;;;;33.86;30.15;101026.00;5103799;28;20078;-61
2021/10/01 11:07:47;;;;;;;9.85;6.07;;;;;;;34.11;29.57;101049.75;5094481;28;20093;-62
2021/10/01 11:10:49;;;;;;;8.32;5.78;;;;;;;33.93;29.90;101028.81;5091836;28;20067;-62
2021/10/01 11:13:19;;;;;;;7.15;4.00;;;;;;;34.24;29.06;101015.25;5110430;28;20490;-61
2021/10/01 11:16:07;;;;;;;7.60;3.67;;;;;;;34.36;29.08;101019.63;5112312;28;20043;-62
2021/10/01 11:18:41;;;;;;;14.23;6.78;;;;;;;34.69;28.78;101025.88;5097369;28;20040;-62
2021/10/01 11:21:32;;;;;;;12.73;8.85;;;;;;;35.02;28.96;101009.66;5092335;28;20105;-62
2021/10/01 11:24:07;;;;;;;13.00;7.82;;;;;;;35.54;28.08;101017.94;5092218;28;20078;-61
2021/10/01 11:26:41;;;;;;;9.40;4.53;;;;;;;35.80;27.31;101019.97;5098985;28;20048;-61
2021/10/01 11:29:24;;;;;;;6.40;4.50;;;;;;;36.19;26.98;100994.31;5096071;28;20066;-62
2021/10/01 11:31:58;;;;;;;10.32;6.10;;;;;;;36.36;26.49;100992.28;5098163;28;20127;-62
2021/10/01 11:34:47;;;;;;;15.45;7.05;;;;;;;36.43;26.66;100990.03;5101796;28;20040;-63
2021/10/01 11:37:29;;;;;;;10.50;4.28;;;;;;;36.41;26.12;100992.59;5115064;28;20464;-62
2021/10/01 11:40:02;;;;;;;8.95;4.20;;;;;;;36.68;26.39;101012.78;5115827;28;20082;-63
2021/10/01 11:42:37;;;;;;;11.18;4.53;;;;;;;36.98;25.24;101017.50;5111783;27;20540;-62
2021/10/01 11:45:15;;;;;;;7.25;3.97;;;;;;;37.23;24.98;101016.91;5116197;28;20415;-63
2021/10/01 11:48:04;;;;;;;8.38;4.57;;;;;;;37.80;24.94;101014.59;5111638;28;20067;-63
2021/10/01 11:50:31;;;;;;;10.93;4.53;;;;;;;38.21;24.36;101027.66;5116618;28;20097;-62
2021/10/01 11:52:58;;;;;;;5.97;3.42;;;;;;;37.88;24.14;100995.66;5113956;28;20071;-60
2021/10/01 11:55:27;;;;;;;8.50;3.47;;;;;;;37.61;24.01;101019.31;5114189;28;20131;-60
2021/10/01 11:57:54;;;;;;;;;;;;;;;38.63;24.19;101013.06;5095930;28;20078;-61
2021/10/01 12:00:24;;;;;;;7.65;3.67;;;;;;;38.44;23.60;101023.69;5105585;28;20026;-62
2021/10/01 12:02:52;;;;;;;6.30;3.38;;;;;;;38.70;23.59;101018.69;5113187;28;20130;-60
2021/10/01 12:05:34;;;;;;;7.45;3.75;;;;;;;38.23;23.67;101013.44;5102556;28;20510;-60
2021/10/01 12:08:03;;;;;;;4.90;2.33;;;;;;;37.87;23.52;101022.34;5107802;27;20043;-61
2021/10/01 12:10:31;;;;;;;;;;;;;;;38.35;23.80;101020.56;5114060;28;20050;-61
2021/10/01 12:12:59;;;;;;;5.10;2.25;;;;;;;38.15;23.76;101017.81;5096944;28;19998;-62
2021/10/01 12:15:50;;;;;;;4.65;2.90;;;;;;;38.46;23.85;101011.53;5095492;28;20051;-61
2021/10/01 12:18:31;;;;;;;6.38;2.28;;;;;;;38.80;23.34;100993.38;5110803;27;20044;-62
2021/10/01 12:21:05;;;;;;;3.83;2.08;;;;;;;38.99;22.94;101011.97;5097958;28;20078;-61
2021/10/01 12:23:36;;;;;;;6.03;2.22;;;;;;;39.12;23.18;100998.19;5094201;28;20051;-61
2021/10/01 12:26:28;;;;;;;5.93;3.15;;;;;;;39.52;23.02;100997.69;5102758;28;20544;-61
2021/10/01 12:28:56;;;;;;;10.48;3.70;;;;;;;39.26;22.85;101003.59;5086636;28;20131;-61
2021/10/01 12:31:23;;;;;;;5.90;2.58;;;;;;;39.79;22.54;101003.00;5098784;28;20135;-61
2021/10/01 12:33:50;;;;;;;5.38;2.75;;;;;;;40.02;22.12;100995.91;5098287;28;20040;-61
2021/10/01 12:36:17;;;;;;;4.82;3.03;;;;;;;39.94;22.36;100994.56;5109868;28;20166;-62
2021/10/01 12:38:44;;;;;;;5.05;2.70;;;;;;;40.00;22.33;100992.63;5099562;28;20085;-62
2021/10/01 12:41:15;;;;;;;5.50;2.15;;;;;;;39.94;22.16;100988.69;5105032;28;20203;-62
2021/10/01 12:43:51;;;;;;;10.80;2.00;;;;;;;39.60;22.62;100981.53;5093695;28;20048;-62
2021/10/01 12:46:54;;;;;;;7.05;2.45;;;;;;;39.39;23.00;100988.97;5094156;27;20127;-62
2021/10/01 12:49:25;;;;;;;4.80;3.03;;;;;;;38.93;23.38;100984.66;5024802;28;20544;-62
2021/10/01 12:52:02;;;;;;;5.95;2.40;;;;;;;39.27;22.80;100973.06;5096033;28;20075;-62
2021/10/01 12:54:44;;;;;;;4.85;1.73;;;;;;;39.27;22.79;100970.16;5114196;28;20462;-61
2021/10/01 12:57:11;;;;;;;4.80;2.08;;;;;;;38.81;22.85;100978.34;5113645;27;20127;-62
2021/10/01 12:59:43;;;;;;;4.18;2.22;;;;;;;39.08;23.25;100971.22;5088974;28;20075;-62
2021/10/01 13:02:33;;;;;;;7.20;2.65;;;;;;;39.29;22.56;100964.66;5099839;28;20499;-61
2021/10/01 13:05:03;;;;;;;3.35;1.60;;;;;;;39.71;22.07;100932.28;5108701;28;20035;-60